createdAt,value
2024-02-13T00:01:47.599Z,1.60
2024-02-13T00:04:13.831Z,1.35
2024-02-13T00:06:40.044Z,1.63
2024-02-13T00:09:06.350Z,1.60
2024-02-13T00:11:32.630Z,0.77
2024-02-13T00:13:58.869Z,1.02
2024-02-13T00:16:25.078Z,1.10
2024-02-13T00:18:51.297Z,1.55
2024-02-13T00:21:17.528Z,1.05
2024-02-13T00:23:43.944Z,1.23
2024-02-13T00:26:10.294Z,1.02
2024-02-13T00:28:36.523Z,1.10
2024-02-13T00:31:02.741Z,1.08
2024-02-13T00:33:29.014Z,1.52
2024-02-13T00:35:55.363Z,1.50
2024-02-13T00:38:21.608Z,1.85
2024-02-13T00:40:47.847Z,1.73
2024-02-13T00:43:14.048Z,1.73
2024-02-13T00:45:40.300Z,1.25
2024-02-13T00:48:06.602Z,1.67
2024-02-13T00:50:32.914Z,1.13
2024-02-13T00:52:59.181Z,1.27
2024-02-13T00:55:25.389Z,1.40
2024-02-13T00:57:51.693Z,1.05
2024-02-13T01:00:18.016Z,1.40
2024-02-13T01:02:44.310Z,1.40
2024-02-13T01:05:10.875Z,1.27
2024-02-13T01:07:37.315Z,2.08
2024-02-13T01:10:03.712Z,1.13
2024-02-13T01:12:29.940Z,0.93
2024-02-13T01:14:56.230Z,1.08
2024-02-13T01:17:22.646Z,1.95
2024-02-13T01:19:48.979Z,1.52
2024-02-13T01:22:15.204Z,0.85
2024-02-13T01:24:41.478Z,1.55
2024-02-13T01:27:07.696Z,1.10
2024-02-13T01:29:33.926Z,1.15
2024-02-13T01:32:00.157Z,1.65
2024-02-13T01:34:26.405Z,1.67
2024-02-13T01:36:52.643Z,1.27
2024-02-13T01:39:18.845Z,1.48
2024-02-13T01:41:45.289Z,1.42
2024-02-13T01:44:11.676Z,0.77
2024-02-13T01:46:38.099Z,1.45
2024-02-13T01:49:04.630Z,1.05
2024-02-13T01:51:31.047Z,1.23
2024-02-13T01:53:57.376Z,1.38
2024-02-13T01:56:23.673Z,2.17
2024-02-13T01:58:49.910Z,1.25
2024-02-13T02:01:16.123Z,1.33
2024-02-13T02:03:42.395Z,2.90
2024-02-13T02:06:08.920Z,1.40
2024-02-13T02:08:35.294Z,1.42
2024-02-13T02:11:01.561Z,0.57
2024-02-13T02:13:27.814Z,1.17
2024-02-13T02:15:54.042Z,1.35
2024-02-13T02:18:20.551Z,0.80
2024-02-13T02:20:46.902Z,1.10
2024-02-13T02:23:13.148Z,1.35
2024-02-13T02:25:39.357Z,1.20
2024-02-13T02:28:05.625Z,1.60
2024-02-13T02:30:31.856Z,1.08
2024-02-13T02:32:58.145Z,0.77
2024-02-13T02:35:24.394Z,0.98
2024-02-13T02:37:50.613Z,1.05
2024-02-13T02:40:16.845Z,1.13
2024-02-13T02:42:43.173Z,0.65
2024-02-13T02:45:09.378Z,1.15
2024-02-13T02:47:35.662Z,0.57
2024-02-13T02:50:01.958Z,1.17
2024-02-13T02:52:28.127Z,1.02
2024-02-13T02:54:54.337Z,1.02
2024-02-13T02:57:20.632Z,0.85
2024-02-13T02:59:46.859Z,1.13
2024-02-13T03:02:13.078Z,0.98
2024-02-13T03:04:39.306Z,0.85
2024-02-13T03:07:05.538Z,1.40
2024-02-13T03:09:31.737Z,0.73
2024-02-13T03:11:58.047Z,0.50
2024-02-13T03:14:24.298Z,1.33
2024-02-13T03:16:50.490Z,1.48
2024-02-13T03:19:16.696Z,1.27
2024-02-13T03:21:42.898Z,1.38
2024-02-13T03:24:09.119Z,1.48
2024-02-13T03:26:35.373Z,1.15
2024-02-13T03:29:01.614Z,1.40
2024-02-13T03:31:27.818Z,1.45
2024-02-13T03:33:54.258Z,1.20
2024-02-13T03:36:20.595Z,0.80
2024-02-13T03:38:46.842Z,1.23
2024-02-13T03:41:13.076Z,0.95
2024-02-13T03:43:39.305Z,1.02
2024-02-13T03:46:05.525Z,1.38
2024-02-13T03:48:31.942Z,2.05
2024-02-13T03:50:58.341Z,1.55
2024-02-13T03:53:24.565Z,0.93
2024-02-13T03:55:50.792Z,1.30
2024-02-13T03:58:16.969Z,1.55
2024-02-13T04:00:43.166Z,0.90
2024-02-13T04:03:09.406Z,1.00
2024-02-13T04:05:35.668Z,1.23
2024-02-13T04:08:01.915Z,1.42
2024-02-13T04:10:28.150Z,1.67
2024-02-13T04:12:54.360Z,1.00
2024-02-13T04:15:20.570Z,0.65
2024-02-13T04:17:46.835Z,0.90
2024-02-13T04:20:13.246Z,1.10
2024-02-13T04:22:39.531Z,1.33
2024-02-13T04:25:05.762Z,1.42
2024-02-13T04:27:32.014Z,1.63
2024-02-13T04:29:58.294Z,1.40
2024-02-13T04:32:24.658Z,1.45
2024-02-13T04:34:51.040Z,1.67
2024-02-13T04:37:17.339Z,1.45
2024-02-13T04:39:43.560Z,1.70
2024-02-13T04:42:09.801Z,0.80
2024-02-13T04:44:36.087Z,1.33
2024-02-13T04:47:02.319Z,1.30
2024-02-13T04:49:28.587Z,1.05
2024-02-13T04:51:54.891Z,1.23
2024-02-13T04:54:21.117Z,1.55
2024-02-13T04:56:47.390Z,1.92
2024-02-13T04:59:13.635Z,1.40
2024-02-13T05:01:39.877Z,1.00
2024-02-13T05:04:06.170Z,1.02
2024-02-13T05:06:32.425Z,0.95
2024-02-13T05:08:58.659Z,1.00
2024-02-13T05:11:24.968Z,1.52
2024-02-13T05:13:51.198Z,1.02
2024-02-13T05:16:17.408Z,0.77
2024-02-13T05:18:43.725Z,1.63
2024-02-13T05:21:10.047Z,1.77
2024-02-13T05:23:36.317Z,1.67
2024-02-13T05:26:02.591Z,1.15
2024-02-13T05:28:28.804Z,1.10
2024-02-13T05:30:55.063Z,2.22
2024-02-13T05:33:21.534Z,1.60
2024-02-13T05:35:48.047Z,1.05
2024-02-13T05:38:14.350Z,1.10
2024-02-13T05:40:40.557Z,1.55
2024-02-13T05:43:06.751Z,1.55
2024-02-13T05:45:32.949Z,1.73
2024-02-13T05:47:59.209Z,1.45
2024-02-13T05:50:25.505Z,1.20
2024-02-13T05:52:51.753Z,1.02
2024-02-13T05:55:17.960Z,1.23
2024-02-13T05:57:44.156Z,1.80
2024-02-13T06:00:11.253Z,1.27
2024-02-13T06:02:37.757Z,1.20
2024-02-13T06:05:03.948Z,1.85
2024-02-13T06:07:30.116Z,0.85
2024-02-13T06:09:56.352Z,1.73
2024-02-13T06:12:22.565Z,0.77
2024-02-13T06:14:48.873Z,1.65
2024-02-13T06:17:15.217Z,1.73
2024-02-13T06:19:41.555Z,1.33
2024-02-13T06:22:07.837Z,2.28
2024-02-13T06:24:34.013Z,1.75
2024-02-13T06:27:00.264Z,1.20
2024-02-13T06:29:26.572Z,1.48
2024-02-13T06:31:52.813Z,1.48
2024-02-13T06:34:19.142Z,1.00
2024-02-13T06:36:45.405Z,1.58
2024-02-13T06:39:11.590Z,0.95
2024-02-13T06:41:37.963Z,1.13
2024-02-13T06:44:04.204Z,1.20
2024-02-13T06:46:30.401Z,1.90
2024-02-13T06:48:56.763Z,1.33
2024-02-13T06:51:23.051Z,2.50
2024-02-13T06:53:49.263Z,1.25
2024-02-13T06:56:15.708Z,1.52
2024-02-13T06:58:42.008Z,1.40
2024-02-13T07:01:08.247Z,1.13
2024-02-13T07:03:34.505Z,1.08
2024-02-13T07:06:01.008Z,1.58
2024-02-13T07:08:30.345Z,2.05
2024-02-13T07:10:56.666Z,2.58
2024-02-13T07:13:22.870Z,2.85
2024-02-13T07:15:49.172Z,2.08
2024-02-13T07:18:15.534Z,1.67
2024-02-13T07:20:41.778Z,1.67
2024-02-13T07:23:08.066Z,3.17
2024-02-13T07:25:34.310Z,3.85
2024-02-13T07:28:00.574Z,2.30
2024-02-13T07:30:26.808Z,2.75
2024-02-13T07:32:53.314Z,3.05
2024-02-13T07:35:19.697Z,3.90
2024-02-13T07:37:45.934Z,3.78
2024-02-13T07:40:12.126Z,1.90
2024-02-13T07:42:38.347Z,1.13
2024-02-13T07:45:04.565Z,2.60
2024-02-13T07:47:30.820Z,2.05
2024-02-13T07:49:57.144Z,1.42
2024-02-13T07:52:23.455Z,1.80
2024-02-13T07:54:49.837Z,2.67
2024-02-13T07:57:16.064Z,1.98
2024-02-13T07:59:42.406Z,2.42
2024-02-13T08:02:08.787Z,1.92
2024-02-13T08:04:35.155Z,3.08
2024-02-13T08:07:01.846Z,1.35
2024-02-13T08:09:29.292Z,2.25
2024-02-13T08:11:55.546Z,2.03
2024-02-13T08:14:21.810Z,1.88
2024-02-13T08:16:48.036Z,0.85
2024-02-13T08:19:14.254Z,2.60
2024-02-13T08:21:40.478Z,2.80
2024-02-13T08:24:06.688Z,2.25
2024-02-13T08:26:32.953Z,1.95
2024-02-13T08:29:01.740Z,2.22
2024-02-13T08:31:27.917Z,2.85
2024-02-13T08:33:54.237Z,2.60
2024-02-13T08:36:20.544Z,3.28
2024-02-13T08:38:46.835Z,2.38
2024-02-13T08:41:13.143Z,2.70
2024-02-13T08:43:39.495Z,2.90
2024-02-13T08:46:05.771Z,2.28
2024-02-13T08:48:32.258Z,2.30
2024-02-13T08:50:58.832Z,1.77
2024-02-13T08:53:25.459Z,1.95
2024-02-13T08:55:51.722Z,2.17
2024-02-13T08:58:17.976Z,1.30
2024-02-13T09:00:44.316Z,3.20
2024-02-13T09:03:10.569Z,3.30
2024-02-13T09:05:36.837Z,4.18
2024-02-13T09:08:03.113Z,3.08
2024-02-13T09:10:29.311Z,3.38
2024-02-13T09:12:55.653Z,3.47
2024-02-13T09:15:21.950Z,2.63
2024-02-13T09:17:48.367Z,2.58
2024-02-13T09:20:14.678Z,4.00
2024-02-13T09:22:40.899Z,2.75
2024-02-13T09:25:07.140Z,3.88
2024-02-13T09:27:33.362Z,3.78
2024-02-13T09:29:59.651Z,4.00
2024-02-13T09:32:26.027Z,3.25
2024-02-13T09:34:52.290Z,3.10
2024-02-13T09:37:18.635Z,2.92
2024-02-13T09:39:44.836Z,2.42
2024-02-13T09:42:11.085Z,3.20
2024-02-13T09:44:37.324Z,2.00
2024-02-13T09:47:03.555Z,2.42
2024-02-13T09:49:29.875Z,2.60
2024-02-13T09:51:56.196Z,2.38
2024-02-13T09:54:22.409Z,2.10
2024-02-13T09:56:48.714Z,1.75
2024-02-13T09:59:14.968Z,1.92
2024-02-13T10:01:41.226Z,1.75
2024-02-13T10:04:07.468Z,1.38
2024-02-13T10:06:33.810Z,1.45
2024-02-13T10:09:00.388Z,1.58
2024-02-13T10:11:26.788Z,1.75
2024-02-13T10:13:53.244Z,1.50
2024-02-13T10:16:19.473Z,0.65
2024-02-13T10:18:46.047Z,1.90
2024-02-13T10:21:12.536Z,1.02
2024-02-13T10:23:38.812Z,1.42
2024-02-13T10:26:05.097Z,1.33
2024-02-13T10:28:31.329Z,1.38
2024-02-13T10:30:57.609Z,1.40
2024-02-13T10:33:23.979Z,1.20
2024-02-13T10:35:50.263Z,1.38
2024-02-13T10:38:16.604Z,1.65
2024-02-13T10:40:42.882Z,1.00
2024-02-13T10:43:09.099Z,1.60
2024-02-13T10:45:35.344Z,1.58
2024-02-13T10:48:01.699Z,1.52
2024-02-13T10:50:28.008Z,1.17
2024-02-13T10:52:54.210Z,0.60
2024-02-13T10:55:20.460Z,1.65
2024-02-13T10:57:46.768Z,1.48
2024-02-13T11:00:13.021Z,1.23
2024-02-13T11:02:39.394Z,1.00
2024-02-13T11:05:05.761Z,1.30
2024-02-13T11:07:32.025Z,1.15
2024-02-13T11:09:58.263Z,0.98
2024-02-13T11:12:24.485Z,1.30
2024-02-13T11:14:50.802Z,1.88
2024-02-13T11:17:17.360Z,1.30
2024-02-13T11:19:46.237Z,0.70
2024-02-13T11:22:13.162Z,1.05
2024-02-13T11:24:39.394Z,1.23
2024-02-13T11:27:19.539Z,1.27
2024-02-13T11:29:50.598Z,0.60
2024-02-13T11:32:16.817Z,0.65
2024-02-13T11:34:43.814Z,0.40
2024-02-13T11:37:10.390Z,1.23
2024-02-13T11:39:36.654Z,1.20
2024-02-13T11:42:02.987Z,1.10
2024-02-13T11:44:29.321Z,0.95
2024-02-13T11:46:55.732Z,0.98
2024-02-13T11:49:22.436Z,1.50
2024-02-13T11:51:48.923Z,0.80
2024-02-13T11:54:15.183Z,0.80
2024-02-13T11:56:41.487Z,0.70
2024-02-13T11:59:07.748Z,0.93
2024-02-13T12:01:33.969Z,0.63
2024-02-13T12:04:00.263Z,0.90
2024-02-13T12:06:26.583Z,0.90
2024-02-13T12:08:52.914Z,0.63
2024-02-13T12:11:19.181Z,0.82
2024-02-13T12:13:45.391Z,1.50
2024-02-13T12:16:11.624Z,1.02
2024-02-13T12:18:38.024Z,1.40
2024-02-13T12:21:04.370Z,0.95
2024-02-13T12:23:30.699Z,0.98
2024-02-13T12:25:56.988Z,1.05
2024-02-13T12:28:23.234Z,1.73
2024-02-13T12:30:49.482Z,1.05
2024-02-13T12:33:15.860Z,0.68
2024-02-13T12:35:42.149Z,1.10
2024-02-13T12:38:08.393Z,0.60
2024-02-13T12:40:34.635Z,0.75
2024-02-13T12:43:00.816Z,0.82
2024-02-13T12:45:27.097Z,1.30
2024-02-13T12:47:53.437Z,0.80
2024-02-13T12:50:19.881Z,0.95
2024-02-13T12:52:46.234Z,0.90
2024-02-13T12:55:12.462Z,0.68
2024-02-13T12:57:38.747Z,0.93
2024-02-13T13:00:05.052Z,0.60
2024-02-13T13:02:31.315Z,1.10
2024-02-13T13:04:57.539Z,0.82
2024-02-13T13:07:23.713Z,0.90
2024-02-13T13:09:50.023Z,1.27
2024-02-13T13:12:16.278Z,0.57
2024-02-13T13:14:42.508Z,0.63
2024-02-13T13:17:08.857Z,0.60
2024-02-13T13:19:35.407Z,0.73
2024-02-13T13:22:01.854Z,0.95
2024-02-13T13:24:28.056Z,0.50
2024-02-13T13:26:54.382Z,0.65
2024-02-13T13:29:21.096Z,0.60
2024-02-13T13:31:47.568Z,0.52
2024-02-13T13:34:14.030Z,0.70
2024-02-13T13:36:40.321Z,0.38
2024-02-13T13:39:06.554Z,0.60
2024-02-13T13:41:34.332Z,0.63
2024-02-13T13:44:00.547Z,0.50
2024-02-13T13:46:26.782Z,0.60
2024-02-13T13:48:53.178Z,0.45
2024-02-13T13:51:19.574Z,0.50
2024-02-13T13:53:45.912Z,0.28
2024-02-13T13:56:12.249Z,0.40
2024-02-13T13:58:38.466Z,0.45
2024-02-13T14:01:04.727Z,0.40
2024-02-13T14:03:31.014Z,0.30
2024-02-13T14:05:57.417Z,0.30
2024-02-13T14:08:23.746Z,0.30
2024-02-13T14:10:50.136Z,0.20
2024-02-13T14:13:16.512Z,0.40
2024-02-13T14:15:42.691Z,0.38
2024-02-13T14:18:08.996Z,0.95
2024-02-13T14:20:35.374Z,0.57
2024-02-13T14:23:01.651Z,0.40
2024-02-13T14:25:27.966Z,0.52
2024-02-13T14:27:54.222Z,0.32
2024-02-13T14:30:20.560Z,0.50
2024-02-13T14:32:46.865Z,0.40
2024-02-13T14:35:13.246Z,0.43
2024-02-13T14:37:39.515Z,0.47
2024-02-13T14:40:05.735Z,0.50
2024-02-13T14:42:32.036Z,0.45
2024-02-13T14:44:58.291Z,0.35
2024-02-13T14:47:24.645Z,0.38
2024-02-13T14:49:51.037Z,0.73
2024-02-13T14:52:17.354Z,0.60
2024-02-13T14:54:47.326Z,0.40
2024-02-13T14:57:14.856Z,0.30
2024-02-13T14:59:41.147Z,0.30
2024-02-13T15:02:07.402Z,0.50
2024-02-13T15:04:33.633Z,0.50
2024-02-13T15:06:59.892Z,0.20
2024-02-13T15:09:26.136Z,0.50
2024-02-13T15:11:52.355Z,0.43
2024-02-13T15:14:18.973Z,0.60
2024-02-13T15:16:45.353Z,0.45
2024-02-13T15:19:11.753Z,0.25
2024-02-13T15:21:38.082Z,0.13
2024-02-13T15:24:04.340Z,0.55
2024-02-13T15:26:30.663Z,0.43
2024-02-13T15:28:56.892Z,0.60
2024-02-13T15:31:23.145Z,0.55
2024-02-13T15:33:49.619Z,0.60
2024-02-13T15:36:15.961Z,0.60
2024-02-13T15:38:42.215Z,0.45
2024-02-13T15:41:08.418Z,0.10
2024-02-13T15:43:34.647Z,0.35
2024-02-13T15:46:00.867Z,0.50
2024-02-13T15:48:27.490Z,0.30
2024-02-13T15:50:53.852Z,0.60
2024-02-13T15:53:20.198Z,0.50
2024-02-13T15:55:46.477Z,0.47
2024-02-13T15:58:12.721Z,0.50
2024-02-13T16:00:38.873Z,0.52
2024-02-13T16:03:05.176Z,0.20
2024-02-13T16:05:31.551Z,0.70
2024-02-13T16:07:57.974Z,0.70
2024-02-13T16:10:24.230Z,0.47
2024-02-13T16:12:50.486Z,0.50
2024-02-13T16:15:16.742Z,0.40
2024-02-13T16:17:43.052Z,0.50
2024-02-13T16:20:09.491Z,0.57
2024-02-13T16:22:35.731Z,0.50
2024-02-13T16:25:01.972Z,0.75
2024-02-13T16:27:28.171Z,0.55
2024-02-13T16:29:54.476Z,0.73
2024-02-13T16:32:28.829Z,0.80
2024-02-13T16:37:28.814Z,0.38
2024-02-13T16:39:55.065Z,0.73
2024-02-13T16:42:21.230Z,0.40
2024-02-13T16:44:47.461Z,0.40
2024-02-13T16:47:13.778Z,0.55
2024-02-13T16:49:40.058Z,0.38
2024-02-13T16:52:06.288Z,0.60
2024-02-13T16:54:32.526Z,0.63
2024-02-13T16:56:58.766Z,0.63
2024-02-13T16:59:25.015Z,0.50
2024-02-13T17:01:51.232Z,0.55
2024-02-13T17:04:17.470Z,0.68
2024-02-13T17:06:43.937Z,0.70
2024-02-13T17:09:10.404Z,0.65
2024-02-13T17:11:37.086Z,0.60
2024-02-13T17:14:03.472Z,0.70
2024-02-13T17:16:29.725Z,0.60
2024-02-13T17:18:56.232Z,1.13
2024-02-13T17:21:22.704Z,0.82
2024-02-13T17:23:49.115Z,0.70
2024-02-13T17:26:15.355Z,0.80
2024-02-13T17:28:41.564Z,1.13
2024-02-13T17:31:07.824Z,0.88
2024-02-13T17:33:34.219Z,0.70
2024-02-13T17:36:00.643Z,0.88
2024-02-13T17:38:26.935Z,0.32
2024-02-13T17:40:53.214Z,0.55
2024-02-13T17:43:19.408Z,0.70
2024-02-13T17:45:45.863Z,0.90
2024-02-13T17:48:12.224Z,0.90
2024-02-13T17:50:38.559Z,0.52
2024-02-13T17:53:04.790Z,1.10
2024-02-13T17:55:30.996Z,0.85
2024-02-13T17:57:57.206Z,0.82
2024-02-13T18:00:23.477Z,1.67
2024-02-13T18:02:49.818Z,0.95
2024-02-13T18:05:16.193Z,0.80
2024-02-13T18:07:42.439Z,1.00
2024-02-13T18:10:08.688Z,0.93
2024-02-13T18:12:34.917Z,0.70
2024-02-13T18:15:01.263Z,1.23
2024-02-13T18:17:27.776Z,1.45
2024-02-13T18:19:54.069Z,1.30
2024-02-13T18:22:20.446Z,1.35
2024-02-13T18:24:46.734Z,1.45
2024-02-13T18:27:12.942Z,1.50
2024-02-13T18:29:39.185Z,1.33
2024-02-13T18:32:05.414Z,1.23
2024-02-13T18:34:31.732Z,1.27
2024-02-13T18:36:58.015Z,1.13
2024-02-13T18:39:24.185Z,1.20
2024-02-13T18:41:55.352Z,1.25
2024-02-13T18:44:23.200Z,1.48
2024-02-13T18:46:49.569Z,1.48
2024-02-13T18:49:15.891Z,1.55
2024-02-13T18:51:42.206Z,1.15
2024-02-13T18:54:08.422Z,1.02
2024-02-13T18:56:34.672Z,1.13
2024-02-13T18:59:04.169Z,1.10
2024-02-13T19:01:30.361Z,1.10
2024-02-13T19:03:56.586Z,0.93
2024-02-13T19:06:22.932Z,0.90
2024-02-13T19:08:49.210Z,1.15
2024-02-13T19:11:15.418Z,1.90
2024-02-13T19:13:41.687Z,0.93
2024-02-13T19:16:07.931Z,1.58
2024-02-13T19:18:34.347Z,1.50
2024-02-13T19:21:00.755Z,2.60
2024-02-13T19:23:30.260Z,2.20
2024-02-13T19:25:56.635Z,2.50
2024-02-13T19:28:24.016Z,2.25
2024-02-13T19:30:50.897Z,2.88
2024-02-13T19:33:17.266Z,1.80
2024-02-13T19:35:43.694Z,2.53
2024-02-13T19:38:09.934Z,2.40
2024-02-13T19:40:36.155Z,2.22
2024-02-13T19:43:02.435Z,2.90
2024-02-13T19:45:28.646Z,3.25
2024-02-13T19:47:54.969Z,3.33
2024-02-13T19:50:21.336Z,3.25
2024-02-13T19:52:47.590Z,2.92
2024-02-13T19:55:13.880Z,3.08
2024-02-13T19:57:40.142Z,4.10
2024-02-13T20:00:06.384Z,4.68
2024-02-13T20:02:32.708Z,4.13
2024-02-13T20:04:59.046Z,2.70
2024-02-13T20:07:25.324Z,2.47
2024-02-13T20:09:51.558Z,2.63
2024-02-13T20:12:17.907Z,2.30
2024-02-13T20:14:44.228Z,3.05
2024-02-13T20:17:10.516Z,2.17
2024-02-13T20:19:37.031Z,1.88
2024-02-13T20:22:03.388Z,2.00
2024-02-13T20:24:33.201Z,2.47
2024-02-13T20:26:59.896Z,2.25
2024-02-13T20:29:26.323Z,2.13
2024-02-13T20:31:52.637Z,2.30
2024-02-13T20:34:19.102Z,2.08
2024-02-13T20:36:45.381Z,1.77
2024-02-13T20:39:11.795Z,2.58
2024-02-13T20:41:38.118Z,1.70
2024-02-13T20:44:04.355Z,2.10
2024-02-13T20:46:30.591Z,2.40
2024-02-13T20:48:56.902Z,2.17
2024-02-13T20:51:23.162Z,1.40
2024-02-13T20:53:49.457Z,2.05
2024-02-13T20:56:15.723Z,1.30
2024-02-13T20:58:41.920Z,1.50
2024-02-13T21:01:08.208Z,0.95
2024-02-13T21:03:34.498Z,1.65
2024-02-13T21:06:00.861Z,1.58
2024-02-13T21:08:27.232Z,1.60
2024-02-13T21:10:53.491Z,2.40
2024-02-13T21:13:19.681Z,1.77
2024-02-13T21:15:45.922Z,1.95
2024-02-13T21:18:12.531Z,1.65
2024-02-13T21:20:38.834Z,2.05
2024-02-13T21:23:07.938Z,1.70
2024-02-13T21:25:35.777Z,1.35
2024-02-13T21:28:02.032Z,1.67
2024-02-13T21:30:30.865Z,2.10
2024-02-13T21:32:58.672Z,1.50
2024-02-13T21:35:24.951Z,2.17
2024-02-13T21:37:51.202Z,1.65
2024-02-13T21:40:17.444Z,1.13
2024-02-13T21:42:43.680Z,1.73
2024-02-13T21:45:10.098Z,1.70
2024-02-13T21:47:36.454Z,2.05
2024-02-13T21:50:02.933Z,1.50
2024-02-13T21:52:29.183Z,2.08
2024-02-13T21:54:55.410Z,1.88
2024-02-13T21:57:21.682Z,2.15
2024-02-13T21:59:47.988Z,1.30
2024-02-13T22:02:14.204Z,1.65
2024-02-13T22:04:40.415Z,1.10
2024-02-13T22:07:06.721Z,1.23
2024-02-13T22:09:33.020Z,2.38
2024-02-13T22:11:59.367Z,1.30
2024-02-13T22:14:25.743Z,0.95
2024-02-13T22:16:52.087Z,1.73
2024-02-13T22:19:18.451Z,1.25
2024-02-13T22:21:44.843Z,1.50
2024-02-13T22:24:11.142Z,1.38
2024-02-13T22:26:37.393Z,1.15
2024-02-13T22:29:03.591Z,0.98
2024-02-13T22:31:29.846Z,0.98
2024-02-13T22:33:56.215Z,2.70
2024-02-13T22:36:22.515Z,1.30
2024-02-13T22:38:48.823Z,1.27
2024-02-13T22:41:15.101Z,1.55
2024-02-13T22:43:41.290Z,1.35
2024-02-13T22:46:07.547Z,1.33
2024-02-13T22:48:34.036Z,1.15
2024-02-13T22:51:00.306Z,1.75
2024-02-13T22:53:26.601Z,1.58
2024-02-13T22:55:52.822Z,1.00
2024-02-13T22:58:19.091Z,1.65
2024-02-13T23:00:45.333Z,1.77
2024-02-13T23:03:11.752Z,1.02
2024-02-13T23:05:38.106Z,2.58
2024-02-13T23:08:04.369Z,1.45
2024-02-13T23:10:30.596Z,1.60
2024-02-13T23:12:56.840Z,1.42
2024-02-13T23:15:26.188Z,2.30
2024-02-13T23:17:52.958Z,1.70
2024-02-13T23:20:19.234Z,1.70
2024-02-13T23:22:45.422Z,1.33
2024-02-13T23:25:11.616Z,1.80
2024-02-13T23:27:37.857Z,2.92
2024-02-13T23:30:04.081Z,1.67
2024-02-13T23:32:30.453Z,1.95
2024-02-13T23:34:56.909Z,1.60
2024-02-13T23:37:23.183Z,2.03
2024-02-13T23:39:49.372Z,2.25
2024-02-13T23:42:15.889Z,1.65
2024-02-13T23:44:42.137Z,1.65
2024-02-13T23:47:08.364Z,1.65
2024-02-13T23:49:34.625Z,1.70
2024-02-13T23:52:00.849Z,2.28
2024-02-13T23:54:27.122Z,1.45
2024-02-13T23:56:53.414Z,1.58
2024-02-13T23:59:19.684Z,1.75
